createdAt,value
2023-04-02T00:01:38.950Z,78.92
2023-04-02T00:04:42.808Z,79.35
2023-04-02T00:07:51.805Z,79.36
2023-04-02T00:10:59.137Z,79.09
2023-04-02T00:14:04.681Z,79.28
2023-04-02T00:17:08.398Z,79.09
2023-04-02T00:20:18.079Z,79.07
2023-04-02T00:23:24.532Z,79.16
2023-04-02T00:26:33.951Z,79.66
2023-04-02T00:29:37.846Z,79.23
2023-04-02T00:32:41.954Z,79.33
2023-04-02T00:35:46.663Z,79.16
2023-04-02T00:38:52.828Z,79.23
2023-04-02T00:42:05.109Z,79.81
2023-04-02T00:45:23.225Z,79.11
2023-04-02T00:48:43.927Z,80.16
2023-04-02T00:51:54.576Z,79.48
2023-04-02T00:55:07.868Z,79.42
2023-04-02T00:58:26.579Z,79.50
2023-04-02T01:01:37.816Z,79.21
2023-04-02T01:04:42.954Z,79.63
2023-04-02T01:08:04.291Z,79.19
2023-04-02T01:11:33.232Z,79.35
2023-04-02T01:14:57.238Z,79.76
2023-04-02T01:18:26.939Z,79.84
2023-04-02T01:21:52.833Z,79.79
2023-04-02T01:24:59.629Z,79.82
2023-04-02T01:28:19.518Z,79.42
2023-04-02T01:31:27.727Z,79.86
2023-04-02T01:34:32.440Z,79.75
2023-04-02T01:37:49.513Z,79.39
2023-04-02T01:41:04.131Z,79.74
2023-04-02T01:44:13.331Z,79.36
2023-04-02T01:47:27.266Z,80.38
2023-04-02T01:50:37.350Z,79.23
2023-04-02T01:53:41.966Z,79.65
2023-04-02T01:56:48.352Z,79.47
2023-04-02T01:59:52.868Z,79.59
2023-04-02T02:03:01.213Z,80.15
2023-04-02T02:06:08.322Z,79.47
2023-04-02T02:09:23.118Z,79.61
2023-04-02T02:12:27.525Z,80.16
2023-04-02T02:15:35.245Z,80.34
2023-04-02T02:18:40.880Z,80.37
2023-04-02T02:21:50.610Z,79.17
2023-04-02T02:24:55.751Z,80.30
2023-04-02T02:28:07.258Z,80.28
2023-04-02T02:31:20.649Z,79.71
2023-04-02T02:34:38.837Z,80.31
2023-04-02T02:37:50.616Z,79.94
2023-04-02T02:41:02.562Z,79.63
2023-04-02T02:44:15.863Z,80.27
2023-04-02T02:47:26.755Z,79.71
2023-04-02T02:50:34.959Z,80.17
2023-04-02T02:53:53.148Z,80.35
2023-04-02T02:57:03.696Z,80.06
2023-04-02T03:00:13.021Z,80.05
2023-04-02T03:03:23.214Z,79.96
2023-04-02T03:06:34.074Z,80.00
2023-04-02T03:09:51.630Z,79.89
2023-04-02T03:13:09.134Z,79.61
2023-04-02T03:16:23.064Z,80.00
2023-04-02T03:19:36.922Z,80.34
2023-04-02T03:22:52.295Z,79.45
2023-04-02T03:26:05.787Z,80.41
2023-04-02T03:29:18.772Z,80.29
2023-04-02T03:32:30.603Z,79.69
2023-04-02T03:35:43.367Z,80.32
2023-04-02T03:38:55.287Z,79.65
2023-04-02T03:42:09.110Z,80.25
2023-04-02T03:45:21.254Z,80.35
2023-04-02T03:48:36.035Z,80.34
2023-04-02T03:51:53.762Z,79.55
2023-04-02T03:55:03.823Z,79.74
2023-04-02T03:58:17.646Z,79.67
2023-04-02T04:01:32.219Z,80.37
2023-04-02T04:04:42.086Z,79.54
2023-04-02T04:07:47.089Z,80.30
2023-04-02T04:10:57.390Z,79.80
2023-04-02T04:14:08.340Z,80.32
2023-04-02T04:17:24.622Z,79.54
2023-04-02T04:20:41.913Z,80.15
2023-04-02T04:23:52.813Z,79.79
2023-04-02T04:27:10.166Z,79.50
2023-04-02T04:30:27.821Z,80.07
2023-04-02T04:33:40.861Z,79.60
2023-04-02T04:36:55.193Z,79.73
2023-04-02T04:40:17.636Z,80.00
2023-04-02T04:43:39.405Z,79.35
2023-04-02T04:46:50.747Z,80.31
2023-04-02T04:50:01.981Z,79.30
2023-04-02T04:53:17.740Z,79.65
2023-04-02T04:56:27.997Z,79.66
2023-04-02T04:59:50.998Z,79.48
2023-04-02T05:03:06.907Z,79.36
2023-04-02T05:06:27.161Z,79.46
2023-04-02T05:09:37.595Z,78.96
2023-04-02T05:12:49.872Z,78.91
2023-04-02T05:16:12.115Z,79.37
2023-04-02T05:19:25.227Z,79.58
2023-04-02T05:22:41.314Z,79.47
2023-04-02T05:25:56.274Z,79.49
2023-04-02T05:29:10.490Z,79.69
2023-04-02T05:32:25.009Z,79.61
2023-04-02T05:35:33.466Z,79.05
2023-04-02T05:38:41.069Z,79.44
2023-04-02T05:41:47.934Z,78.98
2023-04-02T05:45:26.036Z,79.77
2023-04-02T05:48:40.484Z,78.69
2023-04-02T05:51:52.143Z,79.29
2023-04-02T05:55:07.019Z,79.58
2023-04-02T06:01:47.888Z,79.16
2023-04-02T06:05:05.491Z,78.58
2023-04-02T06:08:19.806Z,79.26
2023-04-02T06:11:30.820Z,78.87
2023-04-02T06:14:37.387Z,79.26
2023-04-02T06:17:49.550Z,79.07
2023-04-02T06:20:56.491Z,78.94
2023-04-02T06:24:06.805Z,79.01
2023-04-02T06:27:20.118Z,79.15
2023-04-02T06:30:31.280Z,79.41
2023-04-02T06:33:34.998Z,78.33
2023-04-02T06:36:41.239Z,78.96
2023-04-02T06:39:46.513Z,78.96
2023-04-02T06:42:59.749Z,78.41
2023-04-02T06:46:29.764Z,78.71
2023-04-02T06:49:45.468Z,78.70
2023-04-02T06:52:54.934Z,78.69
2023-04-02T06:56:07.299Z,78.37
2023-04-02T06:59:12.900Z,79.09
2023-04-02T07:02:31.162Z,78.57
2023-04-02T07:05:36.712Z,78.80
2023-04-02T07:08:42.226Z,78.87
2023-04-02T07:11:46.442Z,79.24
2023-04-02T07:14:50.800Z,79.25
2023-04-02T07:17:57.198Z,78.75
2023-04-02T07:21:01.871Z,78.70
2023-04-02T07:24:07.794Z,79.16
2023-04-02T07:27:12.168Z,78.98
2023-04-02T07:30:16.173Z,79.16
2023-04-02T07:33:23.710Z,78.39
2023-04-02T07:36:30.786Z,78.65
2023-04-02T07:39:37.810Z,78.65
2023-04-02T07:42:42.681Z,78.05
2023-04-02T07:45:46.524Z,78.52
2023-04-02T07:48:50.065Z,78.01
2023-04-02T07:51:54.077Z,77.78
2023-04-02T07:54:59.014Z,77.95
2023-04-02T07:58:03.105Z,77.22
2023-04-02T08:01:14.854Z,77.13
2023-04-02T08:04:21.458Z,77.13
2023-04-02T08:07:25.086Z,78.20
2023-04-02T08:10:30.881Z,77.23
2023-04-02T08:13:34.659Z,77.40
2023-04-02T08:16:50.156Z,77.98
2023-04-02T08:19:56.298Z,78.05
2023-04-02T08:23:01.062Z,77.76
2023-04-02T08:26:08.488Z,77.10
2023-04-02T08:29:12.561Z,77.10
2023-04-02T08:32:17.348Z,77.50
2023-04-02T08:35:21.076Z,76.86
2023-04-02T08:38:24.770Z,77.93
2023-04-02T08:41:32.237Z,77.85
2023-04-02T08:45:10.880Z,77.58
2023-04-02T08:48:24.904Z,77.73
2023-04-02T08:51:32.510Z,77.48
2023-04-02T08:54:38.588Z,77.31
2023-04-02T08:57:55.528Z,78.14
2023-04-02T09:01:04.511Z,77.09
2023-04-02T09:04:19.030Z,76.97
2023-04-02T09:07:23.251Z,77.82
2023-04-02T09:10:40.382Z,77.68
2023-04-02T09:13:48.470Z,77.25
2023-04-02T09:16:56.771Z,77.37
2023-04-02T09:20:17.930Z,77.20
2023-04-02T09:23:27.064Z,77.38
2023-04-02T09:26:34.137Z,78.21
2023-04-02T09:29:45.257Z,76.52
2023-04-02T09:32:53.223Z,77.03
2023-04-02T09:35:58.582Z,76.93
2023-04-02T09:39:08.340Z,77.62
2023-04-02T09:42:34.056Z,77.13
2023-04-02T09:45:40.622Z,77.89
2023-04-02T09:48:53.517Z,77.10
2023-04-02T09:52:22.031Z,76.70
2023-04-02T09:55:29.226Z,77.40
2023-04-02T09:58:33.276Z,76.10
2023-04-02T10:01:40.866Z,76.36
2023-04-02T10:04:48.097Z,76.93
2023-04-02T10:07:54.740Z,76.74
2023-04-02T10:11:05.200Z,76.25
2023-04-02T10:14:20.294Z,75.41
2023-04-02T10:17:33.731Z,76.54
2023-04-02T10:20:50.985Z,75.80
2023-04-02T10:23:55.804Z,74.98
2023-04-02T10:27:17.712Z,75.49
2023-04-02T10:30:27.548Z,74.93
2023-04-02T10:33:39.840Z,75.37
2023-04-02T10:36:54.480Z,74.72
2023-04-02T10:40:05.282Z,74.89
2023-04-02T10:44:16.725Z,73.03
2023-04-02T10:47:44.721Z,74.89
2023-04-02T10:51:00.691Z,74.08
2023-04-02T10:54:23.314Z,73.85
2023-04-02T10:57:39.420Z,73.74
2023-04-02T11:00:48.467Z,74.48
2023-04-02T11:03:58.660Z,74.90
2023-04-02T11:07:14.276Z,74.72
2023-04-02T11:10:21.459Z,74.09
2023-04-02T11:13:32.607Z,73.94
2023-04-02T11:16:39.398Z,74.45
2023-04-02T11:19:47.142Z,74.90
2023-04-02T11:26:41.476Z,74.43
2023-04-02T11:29:47.945Z,74.26
2023-04-02T11:32:52.034Z,75.65
2023-04-02T11:35:56.837Z,75.11
2023-04-02T11:39:14.676Z,75.53
2023-04-02T11:42:32.242Z,74.66
2023-04-02T11:45:58.671Z,75.08
2023-04-02T11:49:40.104Z,75.32
2023-04-02T11:53:03.900Z,73.80
2023-04-02T11:56:21.062Z,74.65
2023-04-02T11:59:39.181Z,74.63
2023-04-02T12:03:08.547Z,74.33
2023-04-02T12:06:27.476Z,73.98
2023-04-02T12:09:44.581Z,75.40
2023-04-02T12:12:48.724Z,75.34
2023-04-02T12:15:58.768Z,74.39
2023-04-02T12:19:03.522Z,74.95
2023-04-02T12:22:20.048Z,74.79
2023-04-02T12:25:31.828Z,74.23
2023-04-02T12:28:38.002Z,75.14
2023-04-02T12:31:46.044Z,74.54
2023-04-02T12:34:50.449Z,75.47
2023-04-02T12:37:54.852Z,74.69
2023-04-02T12:41:01.794Z,75.03
2023-04-02T12:44:11.604Z,74.84
2023-04-02T12:47:16.891Z,74.73
2023-04-02T12:50:22.514Z,74.61
2023-04-02T12:53:34.294Z,74.06
2023-04-02T12:56:37.829Z,74.18
2023-04-02T12:59:44.019Z,74.48
2023-04-02T13:02:52.887Z,73.99
2023-04-02T13:05:58.629Z,74.27
2023-04-02T13:09:05.320Z,75.39
2023-04-02T13:12:33.499Z,73.74
2023-04-02T13:15:37.186Z,73.62
2023-04-02T13:18:44.808Z,73.80
2023-04-02T13:21:48.589Z,74.06
2023-04-02T13:24:57.395Z,73.88
2023-04-02T13:28:00.943Z,74.19
2023-04-02T13:31:04.691Z,74.82
2023-04-02T13:34:09.772Z,74.55
2023-04-02T13:37:14.367Z,74.53
2023-04-02T13:40:20.844Z,74.83
2023-04-02T13:43:25.448Z,73.96
2023-04-02T13:46:31.748Z,75.04
2023-04-02T13:49:37.119Z,74.60
2023-04-02T13:52:40.885Z,74.04
2023-04-02T13:55:44.755Z,74.39
2023-04-02T13:58:48.286Z,74.00
2023-04-02T14:01:57.091Z,72.90
2023-04-02T14:05:20.494Z,72.14
2023-04-02T14:08:43.037Z,72.27
2023-04-02T14:12:06.252Z,72.64
2023-04-02T14:15:31.310Z,71.80
2023-04-02T14:18:58.141Z,72.68
2023-04-02T14:22:26.683Z,73.07
2023-04-02T14:25:46.704Z,72.59
2023-04-02T14:29:07.315Z,72.86
2023-04-02T14:32:20.560Z,73.41
2023-04-02T14:35:32.281Z,73.09
2023-04-02T14:38:51.834Z,72.83
2023-04-02T14:42:03.922Z,72.95
2023-04-02T14:45:20.851Z,72.36
2023-04-02T14:48:42.566Z,72.83
2023-04-02T14:51:52.009Z,72.98
2023-04-02T14:55:04.279Z,73.53
2023-04-02T14:58:20.400Z,73.19
2023-04-02T15:01:36.368Z,74.05
2023-04-02T15:04:47.232Z,73.62
2023-04-02T15:07:58.962Z,72.97
2023-04-02T15:11:12.185Z,74.50
2023-04-02T15:14:22.396Z,74.09
2023-04-02T15:17:26.073Z,74.16
2023-04-02T15:20:41.189Z,73.81
2023-04-02T15:24:01.701Z,73.65
2023-04-02T15:27:34.878Z,74.45
2023-04-02T15:30:42.658Z,73.62
2023-04-02T15:33:53.180Z,74.53
2023-04-02T15:37:18.401Z,74.30
2023-04-02T15:40:45.675Z,74.09
2023-04-02T15:44:04.460Z,74.32
2023-04-02T15:47:25.158Z,74.32
2023-04-02T15:50:48.245Z,74.49
2023-04-02T15:54:10.960Z,74.11
2023-04-02T15:57:36.499Z,74.04
2023-04-02T16:00:52.861Z,74.50
2023-04-02T16:04:20.862Z,74.10
2023-04-02T16:07:51.812Z,73.69
2023-04-02T16:10:55.550Z,73.93
2023-04-02T16:14:16.945Z,74.49
2023-04-02T16:17:34.875Z,74.16
2023-04-02T16:20:47.292Z,74.00
2023-04-02T16:23:52.390Z,73.86
2023-04-02T16:27:11.639Z,74.15
2023-04-02T16:30:48.005Z,74.19
2023-04-02T16:34:05.231Z,74.18
2023-04-02T16:37:27.661Z,74.42
2023-04-02T16:40:41.822Z,74.29
2023-04-02T16:44:01.582Z,74.81
2023-04-02T16:47:30.577Z,75.21
2023-04-02T16:50:53.321Z,74.34
2023-04-02T16:54:11.372Z,74.43
2023-04-02T16:57:31.363Z,74.93
2023-04-02T17:00:47.672Z,74.46
2023-04-02T17:04:46.594Z,74.99
2023-04-02T17:08:03.960Z,74.73
2023-04-02T17:11:11.009Z,74.76
2023-04-02T17:14:32.637Z,75.06
2023-04-02T17:17:36.642Z,75.14
2023-04-02T17:20:41.461Z,74.78
2023-04-02T17:23:56.256Z,75.47
2023-04-02T17:27:07.332Z,74.59
2023-04-02T17:30:18.744Z,75.11
2023-04-02T17:33:26.679Z,75.23
2023-04-02T17:36:45.260Z,75.12
2023-04-02T17:40:07.247Z,75.00
2023-04-02T17:43:31.797Z,75.06
2023-04-02T17:46:40.703Z,75.04
2023-04-02T17:50:00.542Z,75.22
2023-04-02T17:53:23.538Z,75.27
2023-04-02T17:56:59.283Z,76.21
2023-04-02T18:00:22.330Z,75.84
2023-04-02T18:04:16.738Z,75.65
2023-04-02T18:07:40.255Z,75.96
2023-04-02T18:11:02.484Z,75.94
2023-04-02T18:14:29.602Z,76.25
2023-04-02T18:17:49.034Z,76.00
2023-04-02T18:21:08.892Z,76.12
2023-04-02T18:24:39.085Z,75.97
2023-04-02T18:28:07.773Z,75.95
2023-04-02T18:31:28.982Z,76.00
2023-04-02T18:34:56.554Z,76.15
2023-04-02T18:38:20.280Z,76.09
2023-04-02T18:41:45.945Z,75.51
2023-04-02T18:45:03.623Z,75.90
2023-04-02T18:48:30.054Z,75.94
2023-04-02T18:51:39.642Z,75.74
2023-04-02T18:54:49.977Z,75.83
2023-04-02T18:58:05.070Z,76.04
2023-04-02T19:01:15.505Z,76.01
2023-04-02T19:04:28.541Z,76.39
2023-04-02T19:07:40.150Z,76.26
2023-04-02T19:10:46.504Z,76.16
2023-04-02T19:13:51.414Z,76.07
2023-04-02T19:17:20.205Z,75.86
2023-04-02T19:20:38.707Z,76.95
2023-04-02T19:24:11.616Z,76.27
2023-04-02T19:27:31.141Z,75.88
2023-04-02T19:30:53.847Z,76.30
2023-04-02T19:34:09.385Z,76.50
2023-04-02T19:37:24.751Z,76.57
2023-04-02T19:40:44.771Z,76.06
2023-04-02T19:43:48.605Z,75.95
2023-04-02T19:46:52.629Z,76.21
2023-04-02T19:49:57.596Z,76.11
2023-04-02T19:53:02.656Z,76.18
2023-04-02T19:56:06.388Z,76.24
2023-04-02T19:59:18.160Z,76.16
2023-04-02T20:02:22.350Z,76.40
2023-04-02T20:05:26.334Z,76.35
2023-04-02T20:08:31.931Z,76.04
2023-04-02T20:11:37.426Z,75.55
2023-04-02T20:14:41.452Z,76.22
2023-04-02T20:17:45.163Z,76.03
2023-04-02T20:20:49.605Z,76.23
2023-04-02T20:23:56.052Z,76.34
2023-04-02T20:26:59.658Z,76.54
2023-04-02T20:30:03.644Z,76.66
2023-04-02T20:33:07.171Z,76.45
2023-04-02T20:36:13.719Z,76.82
2023-04-02T20:39:19.502Z,76.90
2023-04-02T20:42:23.498Z,76.55
2023-04-02T20:45:29.298Z,76.58
2023-04-02T20:48:34.925Z,76.95
2023-04-02T20:51:38.576Z,76.90
2023-04-02T20:54:43.746Z,77.07
2023-04-02T20:57:47.576Z,77.08
2023-04-02T21:00:51.966Z,77.28
2023-04-02T21:03:57.940Z,77.24
2023-04-02T21:07:01.728Z,77.11
2023-04-02T21:10:07.870Z,77.46
2023-04-02T21:13:11.679Z,77.18
2023-04-02T21:16:20.131Z,77.20
2023-04-02T21:19:24.557Z,77.02
2023-04-02T21:22:28.256Z,77.34
2023-04-02T21:25:33.614Z,77.22
2023-04-02T21:28:37.305Z,77.62
2023-04-02T21:31:43.316Z,76.81
2023-04-02T21:34:46.857Z,77.39
2023-04-02T21:37:51.278Z,76.98
2023-04-02T21:40:56.558Z,77.36
2023-04-02T21:44:03.210Z,77.29
2023-04-02T21:47:07.223Z,77.31
2023-04-02T21:50:11.748Z,77.03
2023-04-02T21:53:15.724Z,77.03
2023-04-02T21:56:23.001Z,77.54
2023-04-02T21:59:26.601Z,77.26
2023-04-02T22:02:30.725Z,77.15
2023-04-02T22:05:34.363Z,77.18
2023-04-02T22:08:41.288Z,77.51
2023-04-02T22:11:49.339Z,77.01
2023-04-02T22:14:53.108Z,77.71
2023-04-02T22:17:56.631Z,77.31
2023-04-02T22:21:02.255Z,77.14
2023-04-02T22:24:09.572Z,77.19
2023-04-02T22:27:14.728Z,77.26
2023-04-02T22:30:18.498Z,77.61
2023-04-02T22:33:22.708Z,77.58
2023-04-02T22:36:29.219Z,77.07
2023-04-02T22:39:33.119Z,77.35
2023-04-02T22:42:38.519Z,76.75
2023-04-02T22:45:46.122Z,76.97
2023-04-02T22:48:51.302Z,77.16
2023-04-02T22:51:55.193Z,77.10
2023-04-02T22:54:58.697Z,77.55
2023-04-02T22:58:03.989Z,77.53
2023-04-02T23:01:10.458Z,77.45
2023-04-02T23:04:14.383Z,77.38
2023-04-02T23:07:18.196Z,77.23
2023-04-02T23:10:22.381Z,77.10
2023-04-02T23:13:27.392Z,77.35
2023-04-02T23:16:31.679Z,77.60
2023-04-02T23:19:35.691Z,77.55
2023-04-02T23:22:39.847Z,77.52
2023-04-02T23:25:43.588Z,77.24
2023-04-02T23:28:49.376Z,77.61
2023-04-02T23:31:53.029Z,77.26
2023-04-02T23:34:56.942Z,77.54
2023-04-02T23:38:00.543Z,77.76
2023-04-02T23:41:04.523Z,77.77
2023-04-02T23:44:10.897Z,77.63
2023-04-02T23:47:14.672Z,77.54
2023-04-02T23:50:18.557Z,77.25
2023-04-02T23:53:22.366Z,76.96
2023-04-02T23:56:27.234Z,77.92
2023-04-02T23:59:32.581Z,77.75
